sensor_id;sensor_type;location;lat;lon;timestamp;temperature;humidity
77277;DHT22;66330;52.166;9.978;2023-01-16T00:00:51;7.20;59.80
77277;DHT22;66330;52.166;9.978;2023-01-16T00:03:17;7.20;59.80
77277;DHT22;66330;52.166;9.978;2023-01-16T00:05:43;7.10;59.70
77277;DHT22;66330;52.166;9.978;2023-01-16T00:08:09;7.10;59.80
77277;DHT22;66330;52.166;9.978;2023-01-16T00:10:35;7.10;60.00
77277;DHT22;66330;52.166;9.978;2023-01-16T00:13:00;7.00;60.10
77277;DHT22;66330;52.166;9.978;2023-01-16T00:15:26;7.00;60.40
77277;DHT22;66330;52.166;9.978;2023-01-16T00:17:51;7.00;60.50
77277;DHT22;66330;52.166;9.978;2023-01-16T00:20:17;7.00;60.60
77277;DHT22;66330;52.166;9.978;2023-01-16T00:22:43;7.10;60.60
77277;DHT22;66330;52.166;9.978;2023-01-16T00:25:09;7.10;60.60
77277;DHT22;66330;52.166;9.978;2023-01-16T00:27:34;7.10;60.60
77277;DHT22;66330;52.166;9.978;2023-01-16T00:30:00;7.10;60.60
77277;DHT22;66330;52.166;9.978;2023-01-16T00:32:25;7.10;60.60
77277;DHT22;66330;52.166;9.978;2023-01-16T00:34:51;7.10;60.70
77277;DHT22;66330;52.166;9.978;2023-01-16T00:37:17;7.10;60.90
77277;DHT22;66330;52.166;9.978;2023-01-16T00:39:42;7.00;60.80
77277;DHT22;66330;52.166;9.978;2023-01-16T00:42:08;7.00;61.60
77277;DHT22;66330;52.166;9.978;2023-01-16T00:44:34;7.00;61.10
77277;DHT22;66330;52.166;9.978;2023-01-16T00:46:59;6.90;61.20
77277;DHT22;66330;52.166;9.978;2023-01-16T00:49:25;7.00;61.10
77277;DHT22;66330;52.166;9.978;2023-01-16T00:51:50;6.90;61.20
77277;DHT22;66330;52.166;9.978;2023-01-16T00:54:16;6.90;61.30
77277;DHT22;66330;52.166;9.978;2023-01-16T00:56:41;6.80;61.30
77277;DHT22;66330;52.166;9.978;2023-01-16T00:59:07;6.80;61.60
77277;DHT22;66330;52.166;9.978;2023-01-16T01:01:33;6.80;61.80
77277;DHT22;66330;52.166;9.978;2023-01-16T01:03:59;6.80;62.00
77277;DHT22;66330;52.166;9.978;2023-01-16T01:06:25;6.80;62.20
77277;DHT22;66330;52.166;9.978;2023-01-16T01:08:50;6.80;62.30
77277;DHT22;66330;52.166;9.978;2023-01-16T01:11:16;6.80;62.50
77277;DHT22;66330;52.166;9.978;2023-01-16T01:13:43;6.80;62.70
77277;DHT22;66330;52.166;9.978;2023-01-16T01:16:10;6.80;62.80
77277;DHT22;66330;52.166;9.978;2023-01-16T01:18:36;6.80;62.90
77277;DHT22;66330;52.166;9.978;2023-01-16T01:21:01;6.80;63.00
77277;DHT22;66330;52.166;9.978;2023-01-16T01:23:27;6.80;63.20
77277;DHT22;66330;52.166;9.978;2023-01-16T01:25:53;6.80;63.30
77277;DHT22;66330;52.166;9.978;2023-01-16T01:28:19;6.80;64.60
77277;DHT22;66330;52.166;9.978;2023-01-16T01:30:45;6.70;63.30
77277;DHT22;66330;52.166;9.978;2023-01-16T01:33:11;6.70;64.10
77277;DHT22;66330;52.166;9.978;2023-01-16T01:35:38;6.70;64.30
77277;DHT22;66330;52.166;9.978;2023-01-16T01:38:04;6.70;64.40
77277;DHT22;66330;52.166;9.978;2023-01-16T01:40:30;6.70;64.40
77277;DHT22;66330;52.166;9.978;2023-01-16T01:42:57;6.70;64.60
77277;DHT22;66330;52.166;9.978;2023-01-16T01:45:25;6.70;64.60
77277;DHT22;66330;52.166;9.978;2023-01-16T01:48:02;6.70;64.60
77277;DHT22;66330;52.166;9.978;2023-01-16T01:50:33;6.70;65.50
77277;DHT22;66330;52.166;9.978;2023-01-16T01:53:02;6.70;64.70
77277;DHT22;66330;52.166;9.978;2023-01-16T01:55:28;6.80;64.70
77277;DHT22;66330;52.166;9.978;2023-01-16T01:57:56;6.80;64.80
77277;DHT22;66330;52.166;9.978;2023-01-16T02:00:26;6.70;64.10
77277;DHT22;66330;52.166;9.978;2023-01-16T02:03:06;6.70;64.20
77277;DHT22;66330;52.166;9.978;2023-01-16T02:05:39;6.80;65.00
77277;DHT22;66330;52.166;9.978;2023-01-16T02:08:14;6.70;64.80
77277;DHT22;66330;52.166;9.978;2023-01-16T02:10:43;6.70;64.30
77277;DHT22;66330;52.166;9.978;2023-01-16T02:13:10;6.60;64.80
77277;DHT22;66330;52.166;9.978;2023-01-16T02:15:36;6.60;64.90
77277;DHT22;66330;52.166;9.978;2023-01-16T02:18:02;6.60;65.00
77277;DHT22;66330;52.166;9.978;2023-01-16T02:31:48;6.50;65.70
77277;DHT22;66330;52.166;9.978;2023-01-16T02:34:55;6.50;65.70
77277;DHT22;66330;52.166;9.978;2023-01-16T02:37:54;6.50;65.60
77277;DHT22;66330;52.166;9.978;2023-01-16T02:43:02;6.50;65.70
77277;DHT22;66330;52.166;9.978;2023-01-16T02:54:55;6.20;65.80
77277;DHT22;66330;52.166;9.978;2023-01-16T02:57:14;6.20;66.00
77277;DHT22;66330;52.166;9.978;2023-01-16T02:59:41;6.10;66.20
77277;DHT22;66330;52.166;9.978;2023-01-16T03:02:07;6.10;66.60
77277;DHT22;66330;52.166;9.978;2023-01-16T03:07:22;6.10;66.90
77277;DHT22;66330;52.166;9.978;2023-01-16T03:23:54;6.30;66.40
77277;DHT22;66330;52.166;9.978;2023-01-16T03:26:49;6.30;66.90
77277;DHT22;66330;52.166;9.978;2023-01-16T03:29:41;6.30;66.90
77277;DHT22;66330;52.166;9.978;2023-01-16T03:32:30;6.30;66.20
77277;DHT22;66330;52.166;9.978;2023-01-16T03:35:05;6.40;67.00
77277;DHT22;66330;52.166;9.978;2023-01-16T03:37:39;6.40;66.90
77277;DHT22;66330;52.166;9.978;2023-01-16T03:40:12;6.40;67.00
77277;DHT22;66330;52.166;9.978;2023-01-16T03:48:18;6.30;67.00
77277;DHT22;66330;52.166;9.978;2023-01-16T03:50:51;6.20;66.90
77277;DHT22;66330;52.166;9.978;2023-01-16T03:53:22;6.20;67.20
77277;DHT22;66330;52.166;9.978;2023-01-16T03:58:32;6.40;67.70
77277;DHT22;66330;52.166;9.978;2023-01-16T04:03:47;6.00;67.40
77277;DHT22;66330;52.166;9.978;2023-01-16T04:06:22;6.00;67.40
77277;DHT22;66330;52.166;9.978;2023-01-16T04:08:51;5.90;67.80
77277;DHT22;66330;52.166;9.978;2023-01-16T04:11:19;5.90;67.50
77277;DHT22;66330;52.166;9.978;2023-01-16T04:13:48;5.90;68.30
77277;DHT22;66330;52.166;9.978;2023-01-16T04:16:16;5.90;67.90
77277;DHT22;66330;52.166;9.978;2023-01-16T04:18:44;5.90;68.50
77277;DHT22;66330;52.166;9.978;2023-01-16T04:21:11;5.90;68.60
77277;DHT22;66330;52.166;9.978;2023-01-16T04:23:37;5.90;68.60
77277;DHT22;66330;52.166;9.978;2023-01-16T04:26:02;5.90;68.90
77277;DHT22;66330;52.166;9.978;2023-01-16T04:28:28;5.90;68.60
77277;DHT22;66330;52.166;9.978;2023-01-16T04:30:54;6.00;69.10
77277;DHT22;66330;52.166;9.978;2023-01-16T04:33:19;6.00;68.80
77277;DHT22;66330;52.166;9.978;2023-01-16T04:35:45;5.80;68.80
77277;DHT22;66330;52.166;9.978;2023-01-16T04:38:11;6.00;68.00
77277;DHT22;66330;52.166;9.978;2023-01-16T04:40:37;6.00;68.90
77277;DHT22;66330;52.166;9.978;2023-01-16T04:43:03;6.00;69.00
77277;DHT22;66330;52.166;9.978;2023-01-16T04:45:29;5.90;69.00
77277;DHT22;66330;52.166;9.978;2023-01-16T04:47:54;5.90;69.00
77277;DHT22;66330;52.166;9.978;2023-01-16T04:50:20;5.90;69.10
77277;DHT22;66330;52.166;9.978;2023-01-16T04:52:46;5.80;68.40
77277;DHT22;66330;52.166;9.978;2023-01-16T04:55:12;5.80;69.30
77277;DHT22;66330;52.166;9.978;2023-01-16T04:57:38;5.80;69.30
77277;DHT22;66330;52.166;9.978;2023-01-16T05:00:05;5.80;69.20
77277;DHT22;66330;52.166;9.978;2023-01-16T05:02:31;5.80;69.50
77277;DHT22;66330;52.166;9.978;2023-01-16T05:04:57;5.80;69.20
77277;DHT22;66330;52.166;9.978;2023-01-16T05:07:23;5.80;69.40
77277;DHT22;66330;52.166;9.978;2023-01-16T05:09:50;5.80;68.70
77277;DHT22;66330;52.166;9.978;2023-01-16T05:12:16;5.70;69.50
77277;DHT22;66330;52.166;9.978;2023-01-16T05:14:41;5.70;69.60
77277;DHT22;66330;52.166;9.978;2023-01-16T05:17:07;5.70;69.70
77277;DHT22;66330;52.166;9.978;2023-01-16T05:19:32;5.70;69.50
77277;DHT22;66330;52.166;9.978;2023-01-16T05:21:58;5.60;70.00
77277;DHT22;66330;52.166;9.978;2023-01-16T05:24:24;5.60;70.10
77277;DHT22;66330;52.166;9.978;2023-01-16T05:26:50;5.60;70.30
77277;DHT22;66330;52.166;9.978;2023-01-16T05:29:15;5.50;69.30
77277;DHT22;66330;52.166;9.978;2023-01-16T05:31:41;5.60;70.80
77277;DHT22;66330;52.166;9.978;2023-01-16T05:34:08;5.60;70.70
77277;DHT22;66330;52.166;9.978;2023-01-16T05:36:34;5.60;70.90
77277;DHT22;66330;52.166;9.978;2023-01-16T05:38:59;5.70;71.10
77277;DHT22;66330;52.166;9.978;2023-01-16T05:41:25;5.70;71.10
77277;DHT22;66330;52.166;9.978;2023-01-16T05:43:50;5.80;71.70
77277;DHT22;66330;52.166;9.978;2023-01-16T05:46:16;5.80;71.00
77277;DHT22;66330;52.166;9.978;2023-01-16T05:48:42;5.80;72.60
77277;DHT22;66330;52.166;9.978;2023-01-16T05:51:08;5.70;73.10
77277;DHT22;66330;52.166;9.978;2023-01-16T05:53:34;5.60;73.00
77277;DHT22;66330;52.166;9.978;2023-01-16T05:56:08;5.60;73.40
77277;DHT22;66330;52.166;9.978;2023-01-16T05:58:34;5.90;73.90
77277;DHT22;66330;52.166;9.978;2023-01-16T06:01:00;5.50;73.80
77277;DHT22;66330;52.166;9.978;2023-01-16T06:03:26;5.40;74.20
77277;DHT22;66330;52.166;9.978;2023-01-16T06:05:51;5.40;74.50
77277;DHT22;66330;52.166;9.978;2023-01-16T06:08:17;5.40;74.70
77277;DHT22;66330;52.166;9.978;2023-01-16T06:10:43;5.30;74.70
77277;DHT22;66330;52.166;9.978;2023-01-16T06:13:10;5.30;75.20
77277;DHT22;66330;52.166;9.978;2023-01-16T06:15:36;5.30;74.40
77277;DHT22;66330;52.166;9.978;2023-01-16T06:18:01;5.20;75.20
77277;DHT22;66330;52.166;9.978;2023-01-16T06:20:27;5.20;75.40
77277;DHT22;66330;52.166;9.978;2023-01-16T06:22:53;5.20;75.00
77277;DHT22;66330;52.166;9.978;2023-01-16T06:25:18;5.20;75.60
77277;DHT22;66330;52.166;9.978;2023-01-16T06:27:50;5.20;75.60
77277;DHT22;66330;52.166;9.978;2023-01-16T06:30:17;5.20;75.80
77277;DHT22;66330;52.166;9.978;2023-01-16T06:32:44;5.10;75.70
77277;DHT22;66330;52.166;9.978;2023-01-16T06:35:13;5.10;76.00
77277;DHT22;66330;52.166;9.978;2023-01-16T06:37:38;5.00;76.10
77277;DHT22;66330;52.166;9.978;2023-01-16T06:40:04;5.00;76.10
77277;DHT22;66330;52.166;9.978;2023-01-16T06:42:30;4.90;76.20
77277;DHT22;66330;52.166;9.978;2023-01-16T06:44:56;4.70;75.60
77277;DHT22;66330;52.166;9.978;2023-01-16T06:47:21;4.80;76.50
77277;DHT22;66330;52.166;9.978;2023-01-16T06:49:47;4.90;76.70
77277;DHT22;66330;52.166;9.978;2023-01-16T06:52:13;4.90;76.70
77277;DHT22;66330;52.166;9.978;2023-01-16T06:54:38;4.90;76.90
77277;DHT22;66330;52.166;9.978;2023-01-16T06:57:04;5.00;77.10
77277;DHT22;66330;52.166;9.978;2023-01-16T06:59:30;5.00;77.10
77277;DHT22;66330;52.166;9.978;2023-01-16T07:01:55;5.10;77.20
77277;DHT22;66330;52.166;9.978;2023-01-16T07:04:21;5.10;77.20
77277;DHT22;66330;52.166;9.978;2023-01-16T07:06:46;5.10;77.10
77277;DHT22;66330;52.166;9.978;2023-01-16T07:09:14;5.10;77.20
77277;DHT22;66330;52.166;9.978;2023-01-16T07:11:39;5.10;76.80
77277;DHT22;66330;52.166;9.978;2023-01-16T07:14:05;5.10;77.40
77277;DHT22;66330;52.166;9.978;2023-01-16T07:16:49;5.10;76.60
77277;DHT22;66330;52.166;9.978;2023-01-16T07:19:33;5.00;76.60
77277;DHT22;66330;52.166;9.978;2023-01-16T07:22:18;5.00;76.60
77277;DHT22;66330;52.166;9.978;2023-01-16T07:25:06;5.00;77.30
77277;DHT22;66330;52.166;9.978;2023-01-16T07:27:33;4.90;77.30
77277;DHT22;66330;52.166;9.978;2023-01-16T07:29:58;4.90;76.20
77277;DHT22;66330;52.166;9.978;2023-01-16T07:32:24;4.90;77.30
77277;DHT22;66330;52.166;9.978;2023-01-16T07:34:50;4.90;77.30
77277;DHT22;66330;52.166;9.978;2023-01-16T07:37:15;4.90;77.20
77277;DHT22;66330;52.166;9.978;2023-01-16T07:39:41;4.90;77.50
77277;DHT22;66330;52.166;9.978;2023-01-16T07:42:07;4.90;76.70
77277;DHT22;66330;52.166;9.978;2023-01-16T07:44:33;5.00;77.50
77277;DHT22;66330;52.166;9.978;2023-01-16T07:46:59;4.90;77.30
77277;DHT22;66330;52.166;9.978;2023-01-16T07:49:25;4.90;77.40
77277;DHT22;66330;52.166;9.978;2023-01-16T07:51:50;5.20;77.70
77277;DHT22;66330;52.166;9.978;2023-01-16T07:54:16;5.00;77.40
77277;DHT22;66330;52.166;9.978;2023-01-16T07:56:42;5.00;77.50
77277;DHT22;66330;52.166;9.978;2023-01-16T07:59:07;5.10;77.50
77277;DHT22;66330;52.166;9.978;2023-01-16T08:01:33;5.10;77.50
77277;DHT22;66330;52.166;9.978;2023-01-16T08:03:59;5.20;77.30
77277;DHT22;66330;52.166;9.978;2023-01-16T08:06:24;5.30;77.20
77277;DHT22;66330;52.166;9.978;2023-01-16T08:08:50;5.40;76.90
77277;DHT22;66330;52.166;9.978;2023-01-16T08:11:16;5.50;76.00
77277;DHT22;66330;52.166;9.978;2023-01-16T08:14:00;5.60;76.80
77277;DHT22;66330;52.166;9.978;2023-01-16T08:16:27;5.70;76.60
77277;DHT22;66330;52.166;9.978;2023-01-16T08:18:52;5.90;76.60
77277;DHT22;66330;52.166;9.978;2023-01-16T08:21:18;6.00;76.30
77277;DHT22;66330;52.166;9.978;2023-01-16T08:23:44;6.10;76.00
77277;DHT22;66330;52.166;9.978;2023-01-16T08:26:11;6.30;75.90
77277;DHT22;66330;52.166;9.978;2023-01-16T08:28:37;6.40;75.50
77277;DHT22;66330;52.166;9.978;2023-01-16T08:31:07;6.50;75.10
77277;DHT22;66330;52.166;9.978;2023-01-16T08:33:38;6.50;74.10
77277;DHT22;66330;52.166;9.978;2023-01-16T08:36:08;6.60;74.20
77277;DHT22;66330;52.166;9.978;2023-01-16T08:38:35;6.60;73.70
77277;DHT22;66330;52.166;9.978;2023-01-16T08:41:01;6.60;73.40
77277;DHT22;66330;52.166;9.978;2023-01-16T08:43:27;6.70;73.30
77277;DHT22;66330;52.166;9.978;2023-01-16T08:46:19;6.70;73.00
77277;DHT22;66330;52.166;9.978;2023-01-16T08:49:04;6.80;73.00
77277;DHT22;66330;52.166;9.978;2023-01-16T08:51:52;6.80;71.90
77277;DHT22;66330;52.166;9.978;2023-01-16T08:54:18;6.90;72.00
77277;DHT22;66330;52.166;9.978;2023-01-16T08:56:44;7.00;71.70
77277;DHT22;66330;52.166;9.978;2023-01-16T08:59:10;7.00;71.60
77277;DHT22;66330;52.166;9.978;2023-01-16T09:01:37;7.10;71.40
77277;DHT22;66330;52.166;9.978;2023-01-16T09:04:02;7.20;70.70
77277;DHT22;66330;52.166;9.978;2023-01-16T09:06:28;7.30;70.50
77277;DHT22;66330;52.166;9.978;2023-01-16T09:08:53;7.30;70.20
77277;DHT22;66330;52.166;9.978;2023-01-16T09:11:19;7.40;69.90
77277;DHT22;66330;52.166;9.978;2023-01-16T09:14:03;7.40;68.70
77277;DHT22;66330;52.166;9.978;2023-01-16T09:16:29;7.50;68.60
77277;DHT22;66330;52.166;9.978;2023-01-16T09:18:54;7.50;68.60
77277;DHT22;66330;52.166;9.978;2023-01-16T09:21:20;7.50;67.60
77277;DHT22;66330;52.166;9.978;2023-01-16T09:23:49;7.50;67.90
77277;DHT22;66330;52.166;9.978;2023-01-16T09:26:14;7.50;67.60
77277;DHT22;66330;52.166;9.978;2023-01-16T09:28:40;7.40;68.10
77277;DHT22;66330;52.166;9.978;2023-01-16T09:31:06;7.40;67.20
77277;DHT22;66330;52.166;9.978;2023-01-16T09:33:31;7.50;67.50
77277;DHT22;66330;52.166;9.978;2023-01-16T09:35:57;7.40;67.10
77277;DHT22;66330;52.166;9.978;2023-01-16T09:38:23;7.50;67.10
77277;DHT22;66330;52.166;9.978;2023-01-16T09:40:56;7.50;67.10
77277;DHT22;66330;52.166;9.978;2023-01-16T09:46:27;7.80;66.30
77277;DHT22;66330;52.166;9.978;2023-01-16T09:49:04;8.00;66.40
77277;DHT22;66330;52.166;9.978;2023-01-16T09:51:42;8.10;66.30
77277;DHT22;66330;52.166;9.978;2023-01-16T09:54:35;8.20;65.90
77277;DHT22;66330;52.166;9.978;2023-01-16T09:57:21;8.40;64.80
77277;DHT22;66330;52.166;9.978;2023-01-16T10:00:06;8.40;64.50
77277;DHT22;66330;52.166;9.978;2023-01-16T10:02:34;8.50;63.90
77277;DHT22;66330;52.166;9.978;2023-01-16T10:05:02;8.50;62.90
77277;DHT22;66330;52.166;9.978;2023-01-16T10:10:27;8.40;62.40
77277;DHT22;66330;52.166;9.978;2023-01-16T10:27:13;8.20;61.30
77277;DHT22;66330;52.166;9.978;2023-01-16T10:29:57;8.20;61.30
77277;DHT22;66330;52.166;9.978;2023-01-16T10:32:49;8.20;60.90
77277;DHT22;66330;52.166;9.978;2023-01-16T10:35:22;8.20;60.30
77277;DHT22;66330;52.166;9.978;2023-01-16T10:37:49;8.10;61.00
77277;DHT22;66330;52.166;9.978;2023-01-16T10:42:45;8.10;61.10
77277;DHT22;66330;52.166;9.978;2023-01-16T10:45:34;8.10;61.30
77277;DHT22;66330;52.166;9.978;2023-01-16T10:48:19;8.00;61.30
77277;DHT22;66330;52.166;9.978;2023-01-16T10:51:04;8.00;61.20
77277;DHT22;66330;52.166;9.978;2023-01-16T10:53:33;8.00;61.40
77277;DHT22;66330;52.166;9.978;2023-01-16T10:56:00;8.00;61.10
77277;DHT22;66330;52.166;9.978;2023-01-16T10:58:31;8.00;61.40
77277;DHT22;66330;52.166;9.978;2023-01-16T11:01:17;8.00;61.00
77277;DHT22;66330;52.166;9.978;2023-01-16T11:03:49;8.00;60.70
77277;DHT22;66330;52.166;9.978;2023-01-16T11:06:21;8.00;60.70
77277;DHT22;66330;52.166;9.978;2023-01-16T11:11:39;7.90;60.40
77277;DHT22;66330;52.166;9.978;2023-01-16T11:14:34;8.00;60.70
77277;DHT22;66330;52.166;9.978;2023-01-16T11:17:32;8.00;60.00
77277;DHT22;66330;52.166;9.978;2023-01-16T11:20:39;8.00;59.90
77277;DHT22;66330;52.166;9.978;2023-01-16T11:25:31;8.10;60.30
77277;DHT22;66330;52.166;9.978;2023-01-16T11:28:00;8.30;60.40
77277;DHT22;66330;52.166;9.978;2023-01-16T11:30:38;8.50;59.80
77277;DHT22;66330;52.166;9.978;2023-01-16T11:33:05;8.70;59.40
77277;DHT22;66330;52.166;9.978;2023-01-16T11:35:35;8.70;59.20
77277;DHT22;66330;52.166;9.978;2023-01-16T11:38:02;8.70;58.40
77277;DHT22;66330;52.166;9.978;2023-01-16T11:40:31;8.70;58.00
77277;DHT22;66330;52.166;9.978;2023-01-16T11:43:08;8.70;58.30
77277;DHT22;66330;52.166;9.978;2023-01-16T11:45:55;8.60;58.00
77277;DHT22;66330;52.166;9.978;2023-01-16T11:48:42;8.50;58.10
77277;DHT22;66330;52.166;9.978;2023-01-16T11:51:18;8.50;58.10
77277;DHT22;66330;52.166;9.978;2023-01-16T11:53:45;8.40;57.60
77277;DHT22;66330;52.166;9.978;2023-01-16T12:01:51;8.40;58.00
77277;DHT22;66330;52.166;9.978;2023-01-16T12:04:39;8.40;58.10
77277;DHT22;66330;52.166;9.978;2023-01-16T12:07:21;8.50;58.20
77277;DHT22;66330;52.166;9.978;2023-01-16T12:09:49;8.50;57.70
77277;DHT22;66330;52.166;9.978;2023-01-16T12:12:38;8.50;57.40
77277;DHT22;66330;52.166;9.978;2023-01-16T12:16:12;8.50;57.20
77277;DHT22;66330;52.166;9.978;2023-01-16T12:18:43;8.50;57.70
77277;DHT22;66330;52.166;9.978;2023-01-16T12:21:41;8.50;57.20
77277;DHT22;66330;52.166;9.978;2023-01-16T12:29:47;8.70;57.50
77277;DHT22;66330;52.166;9.978;2023-01-16T12:32:26;8.70;57.60
77277;DHT22;66330;52.166;9.978;2023-01-16T12:35:14;8.80;57.60
77277;DHT22;66330;52.166;9.978;2023-01-16T12:38:04;8.80;56.70
77277;DHT22;66330;52.166;9.978;2023-01-16T12:43:38;9.70;56.60
77277;DHT22;66330;52.166;9.978;2023-01-16T12:46:16;10.10;55.20
77277;DHT22;66330;52.166;9.978;2023-01-16T12:48:58;10.30;54.80
77277;DHT22;66330;52.166;9.978;2023-01-16T12:51:43;10.30;54.00
77277;DHT22;66330;52.166;9.978;2023-01-16T12:54:43;10.20;53.90
77277;DHT22;66330;52.166;9.978;2023-01-16T12:57:27;10.20;54.00
77277;DHT22;66330;52.166;9.978;2023-01-16T13:02:39;10.20;54.20
77277;DHT22;66330;52.166;9.978;2023-01-16T13:05:17;10.20;54.30
77277;DHT22;66330;52.166;9.978;2023-01-16T13:07:53;10.20;53.90
77277;DHT22;66330;52.166;9.978;2023-01-16T13:10:41;10.20;54.00
77277;DHT22;66330;52.166;9.978;2023-01-16T13:13:31;10.30;54.10
77277;DHT22;66330;52.166;9.978;2023-01-16T13:16:02;10.30;54.10
77277;DHT22;66330;52.166;9.978;2023-01-16T13:18:42;10.30;53.70
77277;DHT22;66330;52.166;9.978;2023-01-16T13:21:18;10.20;53.30
77277;DHT22;66330;52.166;9.978;2023-01-16T13:26:13;10.30;54.30
77277;DHT22;66330;52.166;9.978;2023-01-16T13:36:54;10.30;53.80
77277;DHT22;66330;52.166;9.978;2023-01-16T13:42:15;10.00;53.20
77277;DHT22;66330;52.166;9.978;2023-01-16T13:44:47;9.80;54.30
77277;DHT22;66330;52.166;9.978;2023-01-16T13:47:36;9.60;54.30
77277;DHT22;66330;52.166;9.978;2023-01-16T13:50:24;9.40;54.10
77277;DHT22;66330;52.166;9.978;2023-01-16T13:52:54;9.30;54.70
77277;DHT22;66330;52.166;9.978;2023-01-16T13:55:33;9.10;54.90
77277;DHT22;66330;52.166;9.978;2023-01-16T13:58:23;9.00;55.20
77277;DHT22;66330;52.166;9.978;2023-01-16T14:00:59;8.80;55.80
77277;DHT22;66330;52.166;9.978;2023-01-16T14:03:28;8.70;55.90
77277;DHT22;66330;52.166;9.978;2023-01-16T14:06:18;8.50;57.00
77277;DHT22;66330;52.166;9.978;2023-01-16T14:14:25;7.80;58.70
77277;DHT22;66330;52.166;9.978;2023-01-16T14:17:11;7.60;59.30
77277;DHT22;66330;52.166;9.978;2023-01-16T14:19:48;7.40;59.90
77277;DHT22;66330;52.166;9.978;2023-01-16T14:22:21;7.20;60.60
77277;DHT22;66330;52.166;9.978;2023-01-16T14:24:52;7.20;61.10
77277;DHT22;66330;52.166;9.978;2023-01-16T14:27:21;7.10;62.50
77277;DHT22;66330;52.166;9.978;2023-01-16T14:29:50;7.00;62.10
77277;DHT22;66330;52.166;9.978;2023-01-16T14:32:20;6.90;62.30
77277;DHT22;66330;52.166;9.978;2023-01-16T14:34:52;6.90;62.50
77277;DHT22;66330;52.166;9.978;2023-01-16T14:39:58;6.90;62.90
77277;DHT22;66330;52.166;9.978;2023-01-16T14:42:37;6.90;63.10
77277;DHT22;66330;52.166;9.978;2023-01-16T14:45:35;6.90;62.80
77277;DHT22;66330;52.166;9.978;2023-01-16T14:54:11;6.90;62.20
77277;DHT22;66330;52.166;9.978;2023-01-16T14:57:22;6.90;63.00
77277;DHT22;66330;52.166;9.978;2023-01-16T15:00:12;6.90;62.90
77277;DHT22;66330;52.166;9.978;2023-01-16T15:05:33;6.90;62.70
77277;DHT22;66330;52.166;9.978;2023-01-16T15:08:56;6.90;62.80
77277;DHT22;66330;52.166;9.978;2023-01-16T15:11:26;6.90;62.80
77277;DHT22;66330;52.166;9.978;2023-01-16T15:14:05;6.90;62.70
77277;DHT22;66330;52.166;9.978;2023-01-16T15:17:14;6.90;62.80
77277;DHT22;66330;52.166;9.978;2023-01-16T15:20:27;6.90;62.70
77277;DHT22;66330;52.166;9.978;2023-01-16T15:23:27;6.90;62.30
77277;DHT22;66330;52.166;9.978;2023-01-16T15:33:32;6.90;62.90
77277;DHT22;66330;52.166;9.978;2023-01-16T15:36:23;6.90;63.10
77277;DHT22;66330;52.166;9.978;2023-01-16T15:38:55;6.80;63.10
77277;DHT22;66330;52.166;9.978;2023-01-16T15:41:30;6.80;62.90
77277;DHT22;66330;52.166;9.978;2023-01-16T15:44:20;6.80;64.10
77277;DHT22;66330;52.166;9.978;2023-01-16T15:50:24;6.70;63.30
77277;DHT22;66330;52.166;9.978;2023-01-16T15:52:39;6.70;62.90
77277;DHT22;66330;52.166;9.978;2023-01-16T15:55:36;6.70;62.60
77277;DHT22;66330;52.166;9.978;2023-01-16T15:58:04;6.70;63.20
77277;DHT22;66330;52.166;9.978;2023-01-16T16:00:36;6.90;63.30
77277;DHT22;66330;52.166;9.978;2023-01-16T16:03:12;6.60;62.80
77277;DHT22;66330;52.166;9.978;2023-01-16T16:05:41;6.60;62.80
77277;DHT22;66330;52.166;9.978;2023-01-16T16:08:20;6.60;62.80
77277;DHT22;66330;52.166;9.978;2023-01-16T16:10:47;6.50;62.80
77277;DHT22;66330;52.166;9.978;2023-01-16T16:13:31;6.40;62.10
77277;DHT22;66330;52.166;9.978;2023-01-16T16:16:01;6.40;62.90
77277;DHT22;66330;52.166;9.978;2023-01-16T16:21:18;6.30;63.00
77277;DHT22;66330;52.166;9.978;2023-01-16T16:23:45;6.30;63.70
77277;DHT22;66330;52.166;9.978;2023-01-16T16:26:18;6.20;62.90
77277;DHT22;66330;52.166;9.978;2023-01-16T16:28:45;6.50;63.20
77277;DHT22;66330;52.166;9.978;2023-01-16T16:31:16;6.20;62.90
77277;DHT22;66330;52.166;9.978;2023-01-16T16:36:24;6.20;62.90
77277;DHT22;66330;52.166;9.978;2023-01-16T16:38:52;6.10;62.80
77277;DHT22;66330;52.166;9.978;2023-01-16T16:41:41;6.50;62.40
77277;DHT22;66330;52.166;9.978;2023-01-16T16:44:34;6.10;62.90
77277;DHT22;66330;52.166;9.978;2023-01-16T16:47:00;6.10;62.90
77277;DHT22;66330;52.166;9.978;2023-01-16T16:49:28;6.10;62.90
77277;DHT22;66330;52.166;9.978;2023-01-16T16:51:54;6.10;63.00
77277;DHT22;66330;52.166;9.978;2023-01-16T16:54:25;6.00;62.90
77277;DHT22;66330;52.166;9.978;2023-01-16T16:56:53;6.00;63.10
77277;DHT22;66330;52.166;9.978;2023-01-16T16:59:25;6.00;62.60
77277;DHT22;66330;52.166;9.978;2023-01-16T17:01:53;6.00;63.30
77277;DHT22;66330;52.166;9.978;2023-01-16T17:04:20;5.90;63.30
77277;DHT22;66330;52.166;9.978;2023-01-16T17:06:46;5.90;63.30
77277;DHT22;66330;52.166;9.978;2023-01-16T17:09:14;5.90;62.30
77277;DHT22;66330;52.166;9.978;2023-01-16T17:11:42;5.90;63.30
77277;DHT22;66330;52.166;9.978;2023-01-16T17:14:08;5.90;63.10
77277;DHT22;66330;52.166;9.978;2023-01-16T17:16:34;6.00;63.20
77277;DHT22;66330;52.166;9.978;2023-01-16T17:21:40;5.90;63.20
77277;DHT22;66330;52.166;9.978;2023-01-16T17:24:10;6.00;63.10
77277;DHT22;66330;52.166;9.978;2023-01-16T17:26:38;5.90;63.10
77277;DHT22;66330;52.166;9.978;2023-01-16T17:29:06;6.00;63.00
77277;DHT22;66330;52.166;9.978;2023-01-16T17:31:33;6.00;63.90
77277;DHT22;66330;52.166;9.978;2023-01-16T17:34:00;6.00;63.10
77277;DHT22;66330;52.166;9.978;2023-01-16T17:36:25;6.00;63.10
77277;DHT22;66330;52.166;9.978;2023-01-16T17:38:53;6.00;63.00
77277;DHT22;66330;52.166;9.978;2023-01-16T17:41:26;6.00;63.70
77277;DHT22;66330;52.166;9.978;2023-01-16T17:43:51;6.00;62.90
77277;DHT22;66330;52.166;9.978;2023-01-16T17:46:36;6.00;62.90
77277;DHT22;66330;52.166;9.978;2023-01-16T17:49:01;5.90;62.90
77277;DHT22;66330;52.166;9.978;2023-01-16T17:51:27;6.00;63.10
77277;DHT22;66330;52.166;9.978;2023-01-16T17:53:53;6.00;63.10
77277;DHT22;66330;52.166;9.978;2023-01-16T17:56:19;6.00;63.00
77277;DHT22;66330;52.166;9.978;2023-01-16T17:58:47;6.00;62.40
77277;DHT22;66330;52.166;9.978;2023-01-16T18:01:24;6.00;63.10
77277;DHT22;66330;52.166;9.978;2023-01-16T18:03:53;6.00;63.20
77277;DHT22;66330;52.166;9.978;2023-01-16T18:06:24;6.00;63.20
77277;DHT22;66330;52.166;9.978;2023-01-16T18:08:52;6.00;63.20
77277;DHT22;66330;52.166;9.978;2023-01-16T18:11:18;6.00;63.20
77277;DHT22;66330;52.166;9.978;2023-01-16T18:14:03;6.00;63.10
77277;DHT22;66330;52.166;9.978;2023-01-16T18:16:47;6.10;63.20
77277;DHT22;66330;52.166;9.978;2023-01-16T18:19:32;6.00;63.10
77277;DHT22;66330;52.166;9.978;2023-01-16T18:21:58;6.00;63.20
77277;DHT22;66330;52.166;9.978;2023-01-16T18:24:31;6.00;63.20
77277;DHT22;66330;52.166;9.978;2023-01-16T18:26:58;6.10;62.70
77277;DHT22;66330;52.166;9.978;2023-01-16T18:29:24;6.10;63.20
77277;DHT22;66330;52.166;9.978;2023-01-16T18:31:50;6.10;63.20
77277;DHT22;66330;52.166;9.978;2023-01-16T18:34:35;6.10;62.60
77277;DHT22;66330;52.166;9.978;2023-01-16T18:37:00;6.10;63.10
77277;DHT22;66330;52.166;9.978;2023-01-16T18:39:26;6.10;63.20